Thursday, July 19, 2018, 5:53 AM GMT
Back to Local

CYYG, Charlottetown, P. E. I.

Location: , , Canada Lat: 46.283
Local Time: 5:53 AM GMT ( 5:53 GMT) Lon: -63.133
Time Zone: GMT Elev: 157 ft

Show me the last for .
Show Decoded

2018-07-19 05:00 METAR CYYG 190500Z 01003KT 8SM OVC003 17/17 A2986 RMK SF8 SLP112 DENSITY ALT
                 500FT =
2018-07-19 04:46 METAR CYYG 190446Z 36002KT 6SM BR OVC003 17/17 A2986 RMK SF8 SLP113 DENSITY ALT
                 500FT =
2018-07-19 04:00 METAR CYYG 190400Z 03005KT 4SM BR OVC002 17/17 A2986 RMK SF8 SLP112 DENSITY ALT
                 600FT =
2018-07-19 03:29 METAR CYYG 190329Z 04006KT 4SM BR OVC002 17/17 A2985 RMK SF8 SLP110 DENSITY ALT
                 600FT =
2018-07-19 03:19 METAR CYYG 190319Z 03006KT 10SM OVC002 16/16 A2985 RMK SF8 SLP110 DENSITY ALT
                 500FT =
2018-07-19 03:14 METAR CYYG 190314Z 02005KT 15SM BKN003 BKN057 16/16 A2985 RMK SF5SC2 SLP109
                 DENSITY ALT 500FT =
2018-07-19 03:00 METAR CYYG 190300Z 02005KT 15SM FEW057 SCT230 16/16 A2984 RMK SC2CI2 SLP108
                 DENSITY ALT 500FT =
2018-07-19 02:00 METAR CYYG 190200Z 04003KT 15SM SCT054 BKN230 17/17 A2984 RMK SC3CI3 SLP106
                 DENSITY ALT 600FT =
2018-07-19 01:00 METAR CYYG 190100Z 05002KT 15SM SCT062 SCT130 BKN230 17/17 A2982 RMK SC3AC1CI3
                 AC TR SLP100 DENSITY ALT 600FT =
2018-07-19 00:00 METAR CYYG 190000Z 03002KT 15SM FEW062 SCT130 BKN230 19/17 A2980 RMK SC2AC1CI3
                 SLP093 DENSITY ALT 800FT =
2018-07-18 23:00 METAR CYYG 182300Z 03006KT 15SM SCT045 BKN230 BKN280 21/17 A2978 RMK SC4CS2CI1
                 SLP084 DENSITY ALT 1100FT =
2018-07-18 22:00 METAR CYYG 182200Z 36003KT 15SM FEW014 SCT044 BKN190 BKN280 22/17 A2976 RMK
                 SC2SC2CC1CI2 CU ASOCTD SLP079 DENSITY ALT 1200FT =
2018-07-18 21:53 METAR CYYG 182153Z 01006KT 300V020 15SM FEW014 SCT044 BKN190 BKN280 22/16 A2976
                 RMK SC2SC2CC2CI1 SLP079 DENSITY ALT 1300FT =
2018-07-18 21:00 METAR CYYG 182100Z 36005KT 310V030 15SM FEW007 SCT014 BKN025 BKN044 21/18 A2976
                 RMK SF1SC3SC2SC1 CU ASOCTD SLP080 DENSITY ALT 1100FT =
2018-07-18 20:39 METAR CYYG 182039Z 33006KT 310V010 12SM SCT007 BKN014 OVC023 20/19 A2976 RMK
                 SF3SC4SC1 SLP078 DENSITY ALT 1000FT =
2018-07-18 20:00 METAR CYYG 182000Z 35007KT 290V010 12SM BKN007 OVC015 20/19 A2975 RMK SF5SC3
                 SLP076 DENSITY ALT 1100FT =
2018-07-18 19:26 METAR CYYG 181926Z 25005KT 12SM SCT007 OVC024 21/20 A2974 RMK SF4SC4 SLP073
                 DENSITY ALT 1200FT =
2018-07-18 19:00 METAR CYYG 181900Z 26006KT 10SM -SHRA FEW007 BKN014 OVC031 21/20 A2974 RMK
                 SF1SC6SC1 CVCTV CLD EMBD SLP071 DENSITY ALT 1200FT =
2018-07-18 18:57 METAR CYYG 181857Z 25008KT 10SM -SHRA FEW007 OVC014 21/20 A2974 RMK SF2SC6 CVCTV
                 CLD EMBD SLP071 DENSITY ALT 1200FT =
2018-07-18 18:00 METAR CYYG 181800Z 25010KT 12SM VCSH FEW008 BKN013 OVC036 22/20 A2973 RMK
                 SF1SC6SC1 SH DIST W-N SLP067 DENSITY ALT 1300FT =
2018-07-18 17:00 METAR CYYG 181700Z 22009KT 12SM FEW007 BKN012 OVC018 22/20 A2973 RMK SF2SC3SC3
                 SLP068 DENSITY ALT 1300FT =
2018-07-18 16:10 METAR CYYG 181610Z 22009KT 12SM VCSH FEW004 SCT007 BKN012 OVC018 22/20 A2972 RMK
                 SF2SF2SC3SC1 VIS E LWR CU EMBD SLP064 DENSITY ALT 1200FT =
2018-07-18 16:00 METAR CYYG 181600Z 21007KT 12SM -DZ SCT004 BKN007 OVC018 22/21 A2972 RMK
                 SF3SF4SC1 VIS E-S 6 SLP064 DENSITY ALT 1200FT =
2018-07-18 15:54 METAR CYYG 181554Z 22006KT 12SM -DZ SCT004 BKN007 OVC018 22/21 A2972 RMK
                 SF3SF4SC1 VIS E-S 6 SLP065 DENSITY ALT 1200FT =
2018-07-18 15:29 METAR CYYG 181529Z 23006KT 6SM -DZ BR OVC004 21/21 A2972 RMK SF8 VIS E LWR
                 SLP065 DENSITY ALT 1200FT =
2018-07-18 15:16 METAR CYYG 181516Z 20009KT 2SM -DZ BR OVC005 21/21 A2972 RMK SF8 SLP065 DENSITY
                 ALT 1200FT =
2018-07-18 15:00 METAR CYYG 181500Z 20011G16KT 6SM -SHRA BR BKN008 OVC012 21/20 A2972 RMK SC5SC3
                 CU EMBD SLP065 DENSITY ALT 1200FT =
2018-07-18 14:44 METAR CYYG 181444Z 20008G15KT 15SM -SHRA BKN010 OVC013 21/20 A2972 RMK SC5SC3
                 VIS W LWR CU EMBD SLP066 DENSITY ALT 1200FT =
2018-07-18 14:00 METAR CYYG 181400Z 18014G20KT 15SM -SHRA BKN013 OVC021 22/20 A2971 RMK SC7SC1 CU
                 EMBD SLP063 DENSITY ALT 1300FT =
2018-07-18 13:45 METAR CYYG 181345Z 17014KT 15SM -SHRA FEW008 OVC013 21/20 A2971 RMK SF2SC6 CVCTV
                 CLD EMBD SLP063 DENSITY ALT 1200FT =
2018-07-18 13:00 METAR CYYG 181300Z 18015G21KT 15SM -SHRA SCT006 BKN025 OVC140 22/20 A2971 RMK
                 SF4SC2AC2 CVCTV CLD EMBD SLP063 DENSITY ALT 1300FT =
2018-07-18 12:00 METAR CYYG 181200Z 18015G21KT 15SM -SHRA BKN008 BKN028 OVC073 21/20 A2973 RMK
                 SF6SC1AC1 SLP067 DENSITY ALT 1100FT =
2018-07-18 11:44 METAR CYYG 181144Z 18015G20KT 15SM -SHRA BKN007 OVC042 21/20 A2973 RMK SF5SC3
                 CVCTV CLD EMBD SLP068 DENSITY ALT 1100FT =
2018-07-18 11:31 METAR CYYG 181131Z 18016G22KT 15SM -SHRA SCT008 OVC046 21/20 A2972 RMK SF4SC4
                 CVCTV CLD EMBD SLP066 DENSITY ALT 1100FT =
2018-07-18 11:00 METAR CYYG 181100Z 18016KT 15SM -SHRA FEW011 BKN055 OVC140 21/20 A2973 RMK
                 SF2SC4AC2 CVCTV CLD EMBD SLP067 DENSITY ALT 1100FT =
2018-07-18 10:28 METAR CYYG 181028Z 18014G20KT 15SM -SHRA FEW010 SCT045 BKN100 OVC160 21/20 A2972
                 RMK SF1SC4AC2AC2 SF TR CVCTV CLD EMBD SLP066 DENSITY ALT 1200FT =
2018-07-18 10:00 METAR CYYG 181000Z 18016G22KT 15SM FEW010 SCT034 BKN160 OVC200 21/20 A2973 RMK
                 SF1SC3AC4CI1 SF TR SLP067 DENSITY ALT 1200FT =
2018-07-18 09:00 METAR CYYG 180900Z 18015G21KT 15SM FEW010 SCT034 BKN170 BKN200 21/20 A2973 RMK
                 SF1SC3AC3CI1 CI TR SLP067 DENSITY ALT 1200FT =
2018-07-18 08:00 METAR CYYG 180800Z 19014KT 15SM BKN027 BKN140 21/19 A2974 RMK SC6AC1 AC TR
                 SLP071 DENSITY ALT 1200FT =
2018-07-18 07:00 METAR CYYG 180700Z 19014G20KT 15SM OVC023 21/20 A2974 RMK SC8 SLP073 DENSITY ALT
                 1200FT =
2018-07-18 06:00 METAR CYYG 180600Z 18011G16KT 15SM BKN023 BKN140 21/19 A2975 RMK SC5AC2 SLP075
                 DENSITY ALT 1100FT =

Support USWX by starting your Amazon purchase here.